createdAt,value
2019-05-28T00:01:32.179Z,12.20
2019-05-28T00:04:04.033Z,12.20
2019-05-28T00:06:40.140Z,12.30
2019-05-28T00:12:01.839Z,12.20
2019-05-28T00:14:49.040Z,12.00
2019-05-28T00:17:18.755Z,12.20
2019-05-28T00:19:53.609Z,12.20
2019-05-28T00:22:30.174Z,12.10
2019-05-28T00:25:12.069Z,11.60
2019-05-28T00:27:44.075Z,13.40
2019-05-28T00:30:20.507Z,12.20
2019-05-28T00:32:50.680Z,12.30
2019-05-28T00:35:21.806Z,12.50
2019-05-28T00:37:53.224Z,12.30
2019-05-28T00:40:42.545Z,12.20
2019-05-28T00:43:28.871Z,12.20
2019-05-28T00:46:05.549Z,12.30
2019-05-28T00:48:32.874Z,12.30
2019-05-28T00:50:59.826Z,12.30
2019-05-28T00:53:26.995Z,12.40
2019-05-28T00:55:55.853Z,12.40
2019-05-28T00:58:24.650Z,12.60
2019-05-28T01:00:53.039Z,12.50
2019-05-28T01:03:20.733Z,12.40
2019-05-28T01:05:49.895Z,12.40
2019-05-28T01:08:17.367Z,12.30
2019-05-28T01:10:44.654Z,12.50
2019-05-28T01:13:12.200Z,12.10
2019-05-28T01:16:10.040Z,12.00
2019-05-28T01:18:37.209Z,11.90
2019-05-28T01:21:04.803Z,11.90
2019-05-28T01:23:32.332Z,11.90
2019-05-28T01:26:01.329Z,11.90
2019-05-28T01:28:28.526Z,11.90
2019-05-28T01:31:00.550Z,11.90
2019-05-28T01:33:27.561Z,10.80
2019-05-28T01:35:54.669Z,11.90
2019-05-28T01:38:21.832Z,10.80
2019-05-28T01:40:48.688Z,11.80
2019-05-28T01:43:15.722Z,11.90
2019-05-28T01:45:45.307Z,11.90
2019-05-28T01:48:12.319Z,12.10
2019-05-28T01:50:42.566Z,12.00
2019-05-28T01:53:09.658Z,12.00
2019-05-28T01:55:39.071Z,12.00
2019-05-28T01:58:06.160Z,11.80
2019-05-28T02:00:33.980Z,11.90
2019-05-28T02:03:00.935Z,11.80
2019-05-28T02:05:29.598Z,11.70
2019-05-28T02:07:57.562Z,11.60
2019-05-28T02:10:24.722Z,11.50
2019-05-28T02:12:52.286Z,10.70
2019-05-28T02:15:19.481Z,11.60
2019-05-28T02:17:46.599Z,11.60
2019-05-28T02:20:13.972Z,11.60
2019-05-28T02:22:41.741Z,11.50
2019-05-28T02:25:10.319Z,11.50
2019-05-28T02:27:37.437Z,11.50
2019-05-28T02:30:07.540Z,11.40
2019-05-28T02:32:34.471Z,11.50
2019-05-28T02:35:01.458Z,12.40
2019-05-28T02:37:28.779Z,11.60
2019-05-28T02:39:56.089Z,11.50
2019-05-28T02:42:23.338Z,11.60
2019-05-28T02:44:50.745Z,11.60
2019-05-28T02:47:18.197Z,11.60
2019-05-28T02:49:46.291Z,11.50
2019-05-28T02:52:13.688Z,11.50
2019-05-28T02:54:40.735Z,11.50
2019-05-28T02:57:08.487Z,11.50
2019-05-28T02:59:36.793Z,11.50
2019-05-28T03:02:03.886Z,11.50
2019-05-28T03:04:31.007Z,11.30
2019-05-28T03:07:01.848Z,11.30
2019-05-28T03:09:30.539Z,11.40
2019-05-28T03:11:58.489Z,12.40
2019-05-28T03:14:29.563Z,11.40
2019-05-28T03:16:58.848Z,11.60
2019-05-28T03:19:26.852Z,11.50
2019-05-28T03:21:56.092Z,11.60
2019-05-28T03:24:24.151Z,11.50
2019-05-28T03:26:53.007Z,11.60
2019-05-28T03:29:21.156Z,11.50
2019-05-28T03:32:06.990Z,11.60
2019-05-28T03:34:22.518Z,11.60
2019-05-28T03:36:51.992Z,12.30
2019-05-28T03:39:20.366Z,12.10
2019-05-28T03:41:47.600Z,11.60
2019-05-28T03:44:15.309Z,12.10
2019-05-28T03:46:42.171Z,11.70
2019-05-28T03:49:09.951Z,11.60
2019-05-28T03:51:38.807Z,11.70
2019-05-28T03:54:05.797Z,11.70
2019-05-28T03:56:33.795Z,11.70
2019-05-28T03:59:01.045Z,11.70
2019-05-28T04:01:28.614Z,11.80
2019-05-28T04:03:55.753Z,11.80
2019-05-28T04:06:22.639Z,11.80
2019-05-28T04:08:51.508Z,11.70
2019-05-28T04:11:22.856Z,11.60
2019-05-28T04:13:56.185Z,11.70
2019-05-28T04:16:25.439Z,12.00
2019-05-28T04:19:05.780Z,11.80
2019-05-28T04:21:46.182Z,11.80
2019-05-28T04:24:14.872Z,11.90
2019-05-28T04:26:48.872Z,11.80
2019-05-28T04:29:16.683Z,11.80
2019-05-28T04:31:52.474Z,11.90
2019-05-28T04:34:31.794Z,11.90
2019-05-28T04:37:08.611Z,11.90
2019-05-28T04:39:36.479Z,12.50
2019-05-28T04:42:03.833Z,11.90
2019-05-28T04:44:30.734Z,12.00
2019-05-28T04:47:00.170Z,11.90
2019-05-28T04:49:28.195Z,12.00
2019-05-28T04:51:55.095Z,12.00
2019-05-28T04:54:22.568Z,12.70
2019-05-28T04:56:49.737Z,12.10
2019-05-28T04:59:19.082Z,12.00
2019-05-28T05:01:48.915Z,12.00
2019-05-28T05:04:15.878Z,12.60
2019-05-28T05:06:43.384Z,12.10
2019-05-28T05:09:13.504Z,12.10
2019-05-28T05:11:43.231Z,12.10
2019-05-28T05:14:10.591Z,12.10
2019-05-28T05:16:39.242Z,12.10
2019-05-28T05:19:06.980Z,12.20
2019-05-28T05:21:35.772Z,12.20
2019-05-28T05:24:02.877Z,12.30
2019-05-28T05:26:30.105Z,12.30
2019-05-28T05:28:59.784Z,12.40
2019-05-28T05:31:27.258Z,12.50
2019-05-28T05:33:57.359Z,12.60
2019-05-28T05:45:45.435Z,12.80
2019-05-28T05:48:12.854Z,12.90
2019-05-28T05:50:40.127Z,12.90
2019-05-28T05:53:07.924Z,12.80
2019-05-28T05:55:35.907Z,12.60
2019-05-28T05:58:04.541Z,12.60
2019-05-28T06:00:34.417Z,13.30
2019-05-28T06:03:03.989Z,12.40
2019-05-28T06:05:35.741Z,12.10
2019-05-28T06:08:09.152Z,12.70
2019-05-28T06:10:38.286Z,12.70
2019-05-28T06:13:08.188Z,12.70
2019-05-28T06:15:39.586Z,12.70
2019-05-28T06:18:21.413Z,12.30
2019-05-28T06:21:11.792Z,12.70
2019-05-28T06:23:43.760Z,12.90
2019-05-28T06:26:35.995Z,12.80
2019-05-28T06:29:30.430Z,12.90
2019-05-28T06:32:43.223Z,13.00
2019-05-28T06:35:35.096Z,13.10
2019-05-28T06:38:08.534Z,13.20
2019-05-28T06:40:44.986Z,11.30
2019-05-28T06:43:13.036Z,12.70
2019-05-28T06:45:42.230Z,13.30
2019-05-28T06:48:10.388Z,13.80
2019-05-28T06:50:40.506Z,13.70
2019-05-28T06:53:12.368Z,13.60
2019-05-28T06:55:40.628Z,13.40
2019-05-28T06:58:11.908Z,13.90
2019-05-28T07:00:38.991Z,14.20
2019-05-28T07:03:06.473Z,14.10
2019-05-28T07:05:34.094Z,14.00
2019-05-28T07:08:09.450Z,13.70
2019-05-28T07:10:37.353Z,14.00
2019-05-28T07:13:07.981Z,13.50
2019-05-28T07:15:35.699Z,13.60
2019-05-28T07:18:06.287Z,13.50
2019-05-28T07:20:39.687Z,13.60
2019-05-28T07:23:08.079Z,13.80
2019-05-28T07:25:35.755Z,13.80
2019-05-28T07:28:11.064Z,13.80
2019-05-28T07:30:34.502Z,14.60
2019-05-28T07:33:02.617Z,14.40
2019-05-28T07:35:44.703Z,14.70
2019-05-28T07:38:06.887Z,13.70
2019-05-28T07:40:34.615Z,13.70
2019-05-28T07:43:02.995Z,13.60
2019-05-28T07:45:30.257Z,13.60
2019-05-28T07:48:20.576Z,13.70
2019-05-28T07:50:49.910Z,13.90
2019-05-28T07:53:19.349Z,13.70
2019-05-28T07:55:50.212Z,13.80
2019-05-28T07:58:17.693Z,14.60
2019-05-28T08:00:44.890Z,13.70
2019-05-28T08:03:12.556Z,13.80
2019-05-28T08:05:41.057Z,13.70
2019-05-28T08:08:09.103Z,13.30
2019-05-28T08:10:38.148Z,13.10
2019-05-28T08:13:08.043Z,12.80
2019-05-28T08:15:38.296Z,12.90
2019-05-28T08:18:05.764Z,13.10
2019-05-28T08:20:36.989Z,13.40
2019-05-28T08:23:06.839Z,13.60
2019-05-28T08:25:46.685Z,13.70
2019-05-28T08:28:19.461Z,13.50
2019-05-28T08:30:38.975Z,13.20
2019-05-28T08:33:06.151Z,14.20
2019-05-28T08:35:35.234Z,13.80
2019-05-28T08:38:03.465Z,13.70
2019-05-28T08:40:33.248Z,13.50
2019-05-28T08:43:01.232Z,13.50
2019-05-28T08:45:28.268Z,13.70
2019-05-28T08:47:56.130Z,14.40
2019-05-28T08:50:34.068Z,14.60
2019-05-28T08:52:52.401Z,14.90
2019-05-28T08:55:19.368Z,14.50
2019-05-28T08:57:47.316Z,16.70
2019-05-28T09:00:17.436Z,14.90
2019-05-28T09:02:46.239Z,14.80
2019-05-28T09:05:25.659Z,14.40
2019-05-28T09:07:43.448Z,14.20
2019-05-28T09:10:12.888Z,14.20
2019-05-28T09:12:40.326Z,14.30
2019-05-28T09:15:08.785Z,14.30
2019-05-28T09:22:33.128Z,14.40
2019-05-28T09:25:04.441Z,13.00
2019-05-28T09:27:36.389Z,14.10
2019-05-28T09:30:07.157Z,13.50
2019-05-28T09:32:34.172Z,14.00
2019-05-28T09:35:02.924Z,14.10
2019-05-28T09:37:30.019Z,14.30
2019-05-28T09:39:58.281Z,13.90
2019-05-28T09:42:25.469Z,14.90
2019-05-28T09:44:53.841Z,15.20
2019-05-28T09:47:21.685Z,15.50
2019-05-28T09:49:49.567Z,15.50
2019-05-28T09:52:19.127Z,15.60
2019-05-28T09:54:48.481Z,15.40
2019-05-28T09:57:44.270Z,15.20
2019-05-28T10:00:01.317Z,15.70
2019-05-28T10:02:36.029Z,15.80
2019-05-28T10:05:07.483Z,16.50
2019-05-28T10:07:35.441Z,15.50
2019-05-28T10:10:06.162Z,15.70
2019-05-28T10:12:33.181Z,15.60
2019-05-28T10:15:03.798Z,15.80
2019-05-28T10:17:31.935Z,16.20
2019-05-28T10:19:59.166Z,17.20
2019-05-28T10:22:27.635Z,16.90
2019-05-28T10:24:55.779Z,16.60
2019-05-28T10:27:28.242Z,16.20
2019-05-28T10:29:55.277Z,17.00
2019-05-28T10:32:22.106Z,17.40
2019-05-28T10:35:03.404Z,17.50
2019-05-28T10:37:23.784Z,16.70
2019-05-28T10:39:52.205Z,16.30
2019-05-28T10:42:20.670Z,16.30
2019-05-28T10:44:49.137Z,16.20
2019-05-28T10:47:16.451Z,16.40
2019-05-28T10:49:43.754Z,17.00
2019-05-28T10:52:11.351Z,16.20
2019-05-28T10:54:38.811Z,16.50
2019-05-28T10:57:08.774Z,17.20
2019-05-28T10:59:38.535Z,16.90
2019-05-28T11:02:06.364Z,18.50
2019-05-28T11:04:33.543Z,18.60
2019-05-28T11:07:01.587Z,17.90
2019-05-28T11:09:29.207Z,17.10
2019-05-28T11:11:56.332Z,17.10
2019-05-28T11:14:23.744Z,17.00
2019-05-28T11:16:57.500Z,16.30
2019-05-28T11:19:25.232Z,15.70
2019-05-28T11:21:56.051Z,15.40
2019-05-28T11:24:27.046Z,15.40
2019-05-28T11:26:57.166Z,16.50
2019-05-28T11:29:27.284Z,16.50
2019-05-28T11:31:56.068Z,17.00
2019-05-28T11:34:23.110Z,17.40
2019-05-28T11:37:06.251Z,17.50
2019-05-28T11:39:19.729Z,18.00
2019-05-28T11:41:49.328Z,17.70
2019-05-28T11:44:16.424Z,17.50
2019-05-28T11:46:43.414Z,16.60
2019-05-28T11:49:10.453Z,17.50
2019-05-28T11:51:37.759Z,17.60
2019-05-28T11:54:05.600Z,19.40
2019-05-28T11:56:32.856Z,17.40
2019-05-28T11:59:02.529Z,17.70
2019-05-28T12:01:34.626Z,18.10
2019-05-28T12:03:59.141Z,17.00
2019-05-28T12:06:27.189Z,18.10
2019-05-28T12:08:54.429Z,17.90
2019-05-28T12:11:25.034Z,18.20
2019-05-28T12:13:52.709Z,17.70
2019-05-28T12:16:19.711Z,17.20
2019-05-28T12:18:47.170Z,16.60
2019-05-28T12:21:14.363Z,15.70
2019-05-28T12:23:41.302Z,15.80
2019-05-28T12:26:12.552Z,16.40
2019-05-28T12:28:51.468Z,17.00
2019-05-28T12:31:20.616Z,17.20
2019-05-28T12:33:49.356Z,17.70
2019-05-28T12:36:16.666Z,18.10
2019-05-28T12:38:45.620Z,16.70
2019-05-28T12:41:17.263Z,17.10
2019-05-28T12:43:44.309Z,17.20
2019-05-28T12:46:11.368Z,17.20
2019-05-28T12:48:40.696Z,17.20
2019-05-28T12:51:12.164Z,17.10
2019-05-28T12:53:50.363Z,16.70
2019-05-28T12:56:11.503Z,18.00
2019-05-28T12:58:45.961Z,17.50
2019-05-28T13:01:15.259Z,17.30
2019-05-28T13:03:42.997Z,17.30
2019-05-28T13:06:12.254Z,17.30
2019-05-28T13:08:47.203Z,17.10
2019-05-28T13:11:14.273Z,18.30
2019-05-28T13:13:44.358Z,18.20
2019-05-28T13:16:14.011Z,19.20
2019-05-28T13:18:45.686Z,19.00
2019-05-28T13:21:15.871Z,18.80
2019-05-28T13:23:46.296Z,19.40
2019-05-28T13:26:14.849Z,19.30
2019-05-28T13:29:03.218Z,19.10
2019-05-28T13:31:32.507Z,18.30
2019-05-28T13:34:01.375Z,18.70
2019-05-28T13:36:30.680Z,19.20
2019-05-28T13:38:57.831Z,18.30
2019-05-28T13:41:29.033Z,18.50
2019-05-28T13:43:58.713Z,18.50
2019-05-28T13:46:27.421Z,19.40
2019-05-28T13:48:55.130Z,20.10
2019-05-28T13:51:23.302Z,19.60
2019-05-28T13:53:52.676Z,21.40
2019-05-28T13:56:21.173Z,20.50
2019-05-28T13:58:51.430Z,21.10
2019-05-28T14:01:20.758Z,20.10
2019-05-28T14:03:49.770Z,19.20
2019-05-28T14:06:17.880Z,21.70
2019-05-28T14:08:49.249Z,20.60
2019-05-28T14:11:36.367Z,20.40
2019-05-28T14:14:22.913Z,20.20
2019-05-28T14:16:50.784Z,19.70
2019-05-28T14:19:30.204Z,20.10
2019-05-28T14:22:05.245Z,20.40
2019-05-28T14:24:36.482Z,20.30
2019-05-28T14:27:13.342Z,20.00
2019-05-28T14:29:43.053Z,19.40
2019-05-28T14:32:43.405Z,18.60
2019-05-28T14:35:45.009Z,19.00
2019-05-28T14:38:24.395Z,19.90
2019-05-28T14:40:52.870Z,19.40
2019-05-28T14:43:33.815Z,19.80
2019-05-28T14:46:08.668Z,19.20
2019-05-28T14:48:39.317Z,20.00
2019-05-28T14:51:25.689Z,20.60
2019-05-28T14:54:06.847Z,20.20
2019-05-28T14:56:36.247Z,20.00
2019-05-28T14:59:13.202Z,20.30
2019-05-28T15:01:53.899Z,20.30
2019-05-28T15:04:33.706Z,19.30
2019-05-28T15:07:02.757Z,18.80
2019-05-28T15:09:55.026Z,18.50
2019-05-28T15:12:42.997Z,18.70
2019-05-28T15:15:34.130Z,19.20
2019-05-28T15:17:48.224Z,19.20
2019-05-28T15:23:59.670Z,19.30
2019-05-28T15:26:27.914Z,18.70
2019-05-28T15:29:19.215Z,18.00
2019-05-28T15:32:00.296Z,18.00
2019-05-28T15:34:37.134Z,18.20
2019-05-28T15:37:05.262Z,17.10
2019-05-28T15:39:40.443Z,18.00
2019-05-28T15:42:19.663Z,19.00
2019-05-28T15:44:42.225Z,19.40
2019-05-28T15:47:09.469Z,18.80
2019-05-28T15:49:37.096Z,18.90
2019-05-28T15:52:09.045Z,19.10
2019-05-28T15:54:37.386Z,19.00
2019-05-28T15:57:14.969Z,19.10
2019-05-28T15:59:42.504Z,19.50
2019-05-28T16:02:14.001Z,20.60
2019-05-28T16:04:41.829Z,19.80
2019-05-28T16:07:09.579Z,19.00
2019-05-28T16:09:55.005Z,18.90
2019-05-28T16:12:21.012Z,19.50
2019-05-28T16:14:48.675Z,19.80
2019-05-28T16:18:06.152Z,19.70
2019-05-28T16:27:23.506Z,19.00
2019-05-28T16:29:57.164Z,19.10
2019-05-28T16:32:33.224Z,20.10
2019-05-28T16:35:24.490Z,18.50
2019-05-28T16:37:59.356Z,18.90
2019-05-28T16:40:31.726Z,19.10
2019-05-28T16:43:08.110Z,19.40
2019-05-28T16:48:59.013Z,18.80
2019-05-28T16:51:43.100Z,19.90
2019-05-28T16:54:19.897Z,18.40
2019-05-28T16:57:27.208Z,20.50
2019-05-28T17:00:15.352Z,19.40
2019-05-28T17:03:06.789Z,19.60
2019-05-28T17:05:57.283Z,19.40
2019-05-28T17:08:36.885Z,19.30
2019-05-28T17:11:12.879Z,19.90
2019-05-28T17:13:49.114Z,20.50
2019-05-28T17:16:36.592Z,19.20
2019-05-28T17:19:06.335Z,19.10
2019-05-28T17:21:42.221Z,19.50
2019-05-28T17:24:13.782Z,18.90
2019-05-28T17:26:50.113Z,18.90
2019-05-28T17:29:35.425Z,18.30
2019-05-28T17:32:08.108Z,17.70
2019-05-28T17:35:23.166Z,17.60
2019-05-28T17:38:35.975Z,17.40
2019-05-28T17:44:57.812Z,17.30
2019-05-28T17:47:28.111Z,17.40
2019-05-28T17:57:08.009Z,17.10
2019-05-28T18:06:15.629Z,17.00
2019-05-28T18:08:53.851Z,17.00
2019-05-28T18:11:28.221Z,16.40
2019-05-28T18:14:00.913Z,17.80
2019-05-28T18:17:03.736Z,17.50
2019-05-28T18:19:53.197Z,17.40
2019-05-28T18:22:38.001Z,17.30
2019-05-28T18:25:07.988Z,17.10
2019-05-28T18:28:07.137Z,17.10
2019-05-28T18:33:42.906Z,16.30
2019-05-28T18:36:27.783Z,15.70
2019-05-28T18:44:54.350Z,15.90
2019-05-28T18:47:33.590Z,16.00
2019-05-28T18:50:30.355Z,16.20
2019-05-28T18:53:23.382Z,16.60
2019-05-28T18:56:18.170Z,16.40
2019-05-28T18:58:52.416Z,14.90
2019-05-28T19:04:43.436Z,13.90
2019-05-28T19:07:13.831Z,14.00
2019-05-28T19:09:47.316Z,13.70
2019-05-28T19:12:18.078Z,13.40
2019-05-28T19:14:50.457Z,12.90
2019-05-28T19:17:41.389Z,12.50
2019-05-28T19:20:36.740Z,12.60
2019-05-28T19:23:23.798Z,12.10
2019-05-28T19:26:08.772Z,11.00
2019-05-28T19:28:38.863Z,11.70
2019-05-28T19:31:41.099Z,10.60
2019-05-28T19:37:12.244Z,11.50
2019-05-28T19:39:43.713Z,11.30
2019-05-28T19:42:13.851Z,11.20
2019-05-28T19:44:46.536Z,12.00
2019-05-28T19:47:22.613Z,11.10
2019-05-28T19:49:57.775Z,11.10
2019-05-28T19:52:42.745Z,11.10
2019-05-28T19:55:14.784Z,11.90
2019-05-28T19:57:44.294Z,9.70
2019-05-28T20:00:33.737Z,11.10
2019-05-28T20:03:02.480Z,10.90
2019-05-28T20:05:55.752Z,11.00
2019-05-28T20:08:27.641Z,11.40
2019-05-28T20:11:00.745Z,10.90
2019-05-28T20:13:33.085Z,10.80
2019-05-28T20:16:14.481Z,10.80
2019-05-28T20:18:51.427Z,10.80
2019-05-28T20:21:34.855Z,10.80
2019-05-28T20:24:13.002Z,10.90
2019-05-28T20:27:03.552Z,11.10
2019-05-28T20:29:32.653Z,10.90
2019-05-28T20:32:09.340Z,10.80
2019-05-28T20:34:57.664Z,10.80
2019-05-28T20:43:56.260Z,10.20
2019-05-28T20:46:46.787Z,10.50
2019-05-28T20:49:30.646Z,10.60
2019-05-28T20:52:02.747Z,10.90
2019-05-28T20:55:07.761Z,10.40
2019-05-28T20:57:36.458Z,9.80
2019-05-28T21:00:31.595Z,10.40
2019-05-28T21:06:45.586Z,8.90
2019-05-28T21:09:23.732Z,10.30
2019-05-28T21:11:59.605Z,11.10
2019-05-28T21:14:35.248Z,10.10
2019-05-28T21:17:06.781Z,10.90
2019-05-28T21:19:40.386Z,9.90
2019-05-28T21:22:40.726Z,10.00
2019-05-28T21:25:14.642Z,9.90
2019-05-28T21:27:59.078Z,10.20
2019-05-28T21:30:32.206Z,10.20
2019-05-28T21:36:27.512Z,10.20
2019-05-28T21:39:16.800Z,10.30
2019-05-28T21:41:49.480Z,9.30
2019-05-28T21:44:56.242Z,9.40
2019-05-28T21:47:29.271Z,10.10
2019-05-28T21:50:02.021Z,11.10
2019-05-28T21:52:43.520Z,10.20
2019-05-28T21:55:22.294Z,11.00
2019-05-28T21:57:49.808Z,10.20
2019-05-28T22:00:39.350Z,10.10
2019-05-28T22:03:18.065Z,10.00
2019-05-28T22:06:07.598Z,10.40
2019-05-28T22:08:39.249Z,10.30
2019-05-28T22:11:29.530Z,9.40
2019-05-28T22:14:18.341Z,10.40
2019-05-28T22:17:06.936Z,10.40
2019-05-28T22:19:46.547Z,10.40
2019-05-28T22:25:31.682Z,10.80
2019-05-28T22:28:05.026Z,10.50
2019-05-28T22:30:55.869Z,10.50
2019-05-28T22:33:35.874Z,10.50
2019-05-28T22:36:07.461Z,10.60
2019-05-28T22:39:16.426Z,10.50
2019-05-28T22:41:48.483Z,10.50
2019-05-28T22:44:31.864Z,10.50
2019-05-28T22:47:20.464Z,10.50
2019-05-28T22:50:16.671Z,10.60
2019-05-28T22:52:36.879Z,10.20
2019-05-28T22:55:19.821Z,10.50
2019-05-28T22:57:48.651Z,10.60
2019-05-28T23:00:26.128Z,10.50
2019-05-28T23:02:55.284Z,10.50
2019-05-28T23:06:01.131Z,10.40
2019-05-28T23:08:31.319Z,10.40
2019-05-28T23:11:08.115Z,10.40
2019-05-28T23:13:46.436Z,9.00
2019-05-28T23:16:12.332Z,10.40
2019-05-28T23:18:47.216Z,10.30
2019-05-28T23:21:16.948Z,9.80
2019-05-28T23:24:03.691Z,10.50
2019-05-28T23:26:58.566Z,10.50
2019-05-28T23:29:42.639Z,10.70
2019-05-28T23:32:16.809Z,10.50
2019-05-28T23:34:51.521Z,10.50
2019-05-28T23:37:21.712Z,10.70
2019-05-28T23:39:53.955Z,10.40
2019-05-28T23:45:46.819Z,10.40
2019-05-28T23:48:18.557Z,10.30
2019-05-28T23:50:52.450Z,10.30
2019-05-28T23:53:29.754Z,10.30
2019-05-28T23:56:13.883Z,10.30
2019-05-28T23:58:49.789Z,10.30
